sensor_id;sensor_type;location;lat;lon;timestamp;P1;durP1;ratioP1;P2;durP2;ratioP2
22111;SDS011;11222;50.872;4.312;2023-08-12T00:01:23;8.95;;;5.75;;
22111;SDS011;11222;50.872;4.312;2023-08-12T00:03:50;8.77;;;5.90;;
22111;SDS011;11222;50.872;4.312;2023-08-12T00:06:16;8.63;;;6.03;;
22111;SDS011;11222;50.872;4.312;2023-08-12T00:08:41;8.95;;;6.30;;
22111;SDS011;11222;50.872;4.312;2023-08-12T00:11:07;13.93;;;5.75;;
22111;SDS011;11222;50.872;4.312;2023-08-12T00:13:33;8.77;;;5.97;;
22111;SDS011;11222;50.872;4.312;2023-08-12T00:15:59;8.63;;;5.75;;
22111;SDS011;11222;50.872;4.312;2023-08-12T00:18:24;10.65;;;6.45;;
22111;SDS011;11222;50.872;4.312;2023-08-12T00:20:50;11.70;;;6.10;;
22111;SDS011;11222;50.872;4.312;2023-08-12T00:23:16;11.43;;;6.32;;
22111;SDS011;11222;50.872;4.312;2023-08-12T00:25:42;9.82;;;5.95;;
22111;SDS011;11222;50.872;4.312;2023-08-12T00:28:07;10.48;;;6.35;;
22111;SDS011;11222;50.872;4.312;2023-08-12T00:30:33;10.55;;;6.07;;
22111;SDS011;11222;50.872;4.312;2023-08-12T00:32:59;14.10;;;7.15;;
22111;SDS011;11222;50.872;4.312;2023-08-12T00:35:25;12.65;;;6.88;;
22111;SDS011;11222;50.872;4.312;2023-08-12T00:37:50;10.00;;;6.50;;
22111;SDS011;11222;50.872;4.312;2023-08-12T00:40:16;12.50;;;6.75;;
22111;SDS011;11222;50.872;4.312;2023-08-12T00:42:41;12.88;;;7.05;;
22111;SDS011;11222;50.872;4.312;2023-08-12T00:45:10;11.27;;;6.68;;
22111;SDS011;11222;50.872;4.312;2023-08-12T00:47:39;10.13;;;6.68;;
22111;SDS011;11222;50.872;4.312;2023-08-12T00:50:06;11.45;;;6.65;;
22111;SDS011;11222;50.872;4.312;2023-08-12T00:52:34;12.27;;;7.00;;
22111;SDS011;11222;50.872;4.312;2023-08-12T00:54:59;12.70;;;7.40;;
22111;SDS011;11222;50.872;4.312;2023-08-12T00:57:25;13.93;;;7.10;;
22111;SDS011;11222;50.872;4.312;2023-08-12T00:59:51;9.57;;;6.53;;
22111;SDS011;11222;50.872;4.312;2023-08-12T01:02:17;14.63;;;7.78;;
22111;SDS011;11222;50.872;4.312;2023-08-12T01:04:43;10.90;;;7.32;;
22111;SDS011;11222;50.872;4.312;2023-08-12T01:07:09;12.30;;;7.22;;
22111;SDS011;11222;50.872;4.312;2023-08-12T01:09:35;13.23;;;7.25;;
22111;SDS011;11222;50.872;4.312;2023-08-12T01:12:13;11.23;;;7.20;;
22111;SDS011;11222;50.872;4.312;2023-08-12T01:14:45;12.35;;;7.00;;
22111;SDS011;11222;50.872;4.312;2023-08-12T01:17:36;12.00;;;7.35;;
22111;SDS011;11222;50.872;4.312;2023-08-12T01:20:03;12.65;;;7.40;;
22111;SDS011;11222;50.872;4.312;2023-08-12T01:22:40;10.60;;;6.88;;
22111;SDS011;11222;50.872;4.312;2023-08-12T01:25:09;11.18;;;7.10;;
22111;SDS011;11222;50.872;4.312;2023-08-12T01:27:35;10.35;;;7.88;;
22111;SDS011;11222;50.872;4.312;2023-08-12T01:30:02;14.27;;;7.30;;
22111;SDS011;11222;50.872;4.312;2023-08-12T01:32:45;14.30;;;6.60;;
22111;SDS011;11222;50.872;4.312;2023-08-12T01:35:30;11.35;;;8.00;;
22111;SDS011;11222;50.872;4.312;2023-08-12T01:38:04;14.52;;;8.20;;
22111;SDS011;11222;50.872;4.312;2023-08-12T01:40:33;13.60;;;8.80;;
22111;SDS011;11222;50.872;4.312;2023-08-12T01:43:01;11.65;;;8.10;;
22111;SDS011;11222;50.872;4.312;2023-08-12T01:45:30;13.05;;;8.75;;
22111;SDS011;11222;50.872;4.312;2023-08-12T01:47:57;13.52;;;8.68;;
22111;SDS011;11222;50.872;4.312;2023-08-12T01:50:23;16.10;;;8.93;;
22111;SDS011;11222;50.872;4.312;2023-08-12T01:52:49;16.77;;;9.32;;
22111;SDS011;11222;50.872;4.312;2023-08-12T01:55:14;21.20;;;17.60;;
22111;SDS011;11222;50.872;4.312;2023-08-12T01:57:40;20.08;;;13.95;;
22111;SDS011;11222;50.872;4.312;2023-08-12T02:00:06;12.45;;;8.93;;
22111;SDS011;11222;50.872;4.312;2023-08-12T02:02:33;17.52;;;9.50;;
22111;SDS011;11222;50.872;4.312;2023-08-12T02:04:59;14.45;;;9.02;;
22111;SDS011;11222;50.872;4.312;2023-08-12T02:07:24;18.45;;;12.60;;
22111;SDS011;11222;50.872;4.312;2023-08-12T02:09:50;14.85;;;8.98;;
22111;SDS011;11222;50.872;4.312;2023-08-12T02:12:16;16.25;;;9.43;;
22111;SDS011;11222;50.872;4.312;2023-08-12T02:14:41;14.02;;;9.52;;
22111;SDS011;11222;50.872;4.312;2023-08-12T02:17:07;13.90;;;9.75;;
22111;SDS011;11222;50.872;4.312;2023-08-12T02:19:33;15.90;;;10.00;;
22111;SDS011;11222;50.872;4.312;2023-08-12T02:21:59;13.50;;;9.65;;
22111;SDS011;11222;50.872;4.312;2023-08-12T02:24:26;12.38;;;9.65;;
22111;SDS011;11222;50.872;4.312;2023-08-12T02:26:52;18.13;;;9.88;;
22111;SDS011;11222;50.872;4.312;2023-08-12T02:29:18;16.13;;;9.85;;
22111;SDS011;11222;50.872;4.312;2023-08-12T02:31:44;13.93;;;9.50;;
22111;SDS011;11222;50.872;4.312;2023-08-12T02:34:09;15.50;;;9.63;;
22111;SDS011;11222;50.872;4.312;2023-08-12T02:36:35;15.30;;;9.25;;
22111;SDS011;11222;50.872;4.312;2023-08-12T02:39:01;13.40;;;9.05;;
22111;SDS011;11222;50.872;4.312;2023-08-12T02:41:27;15.27;;;10.10;;
22111;SDS011;11222;50.872;4.312;2023-08-12T02:43:52;13.30;;;9.20;;
22111;SDS011;11222;50.872;4.312;2023-08-12T02:46:18;15.05;;;8.98;;
22111;SDS011;11222;50.872;4.312;2023-08-12T02:48:44;16.08;;;9.85;;
22111;SDS011;11222;50.872;4.312;2023-08-12T02:51:10;12.55;;;8.52;;
22111;SDS011;11222;50.872;4.312;2023-08-12T02:53:36;12.80;;;8.73;;
22111;SDS011;11222;50.872;4.312;2023-08-12T02:56:02;15.73;;;9.27;;
22111;SDS011;11222;50.872;4.312;2023-08-12T02:58:27;17.35;;;9.20;;
22111;SDS011;11222;50.872;4.312;2023-08-12T03:00:54;18.35;;;9.98;;
22111;SDS011;11222;50.872;4.312;2023-08-12T03:03:20;14.70;;;9.48;;
22111;SDS011;11222;50.872;4.312;2023-08-12T03:05:46;13.98;;;9.13;;
22111;SDS011;11222;50.872;4.312;2023-08-12T03:08:12;15.75;;;9.65;;
22111;SDS011;11222;50.872;4.312;2023-08-12T03:10:38;16.95;;;10.15;;
22111;SDS011;11222;50.872;4.312;2023-08-12T03:13:04;15.93;;;10.27;;
22111;SDS011;11222;50.872;4.312;2023-08-12T03:15:29;14.43;;;10.13;;
22111;SDS011;11222;50.872;4.312;2023-08-12T03:17:55;19.35;;;11.32;;
22111;SDS011;11222;50.872;4.312;2023-08-12T03:20:21;16.13;;;11.00;;
22111;SDS011;11222;50.872;4.312;2023-08-12T03:22:47;19.27;;;12.35;;
22111;SDS011;11222;50.872;4.312;2023-08-12T03:25:13;15.40;;;11.40;;
22111;SDS011;11222;50.872;4.312;2023-08-12T03:27:40;16.80;;;11.25;;
22111;SDS011;11222;50.872;4.312;2023-08-12T03:30:06;15.40;;;12.13;;
22111;SDS011;11222;50.872;4.312;2023-08-12T03:32:32;15.23;;;11.43;;
22111;SDS011;11222;50.872;4.312;2023-08-12T03:34:58;17.27;;;12.05;;
22111;SDS011;11222;50.872;4.312;2023-08-12T03:37:24;17.13;;;12.60;;
22111;SDS011;11222;50.872;4.312;2023-08-12T03:39:51;20.48;;;12.65;;
22111;SDS011;11222;50.872;4.312;2023-08-12T03:42:16;20.02;;;13.93;;
22111;SDS011;11222;50.872;4.312;2023-08-12T03:44:43;22.67;;;16.90;;
22111;SDS011;11222;50.872;4.312;2023-08-12T03:47:09;19.55;;;13.35;;
22111;SDS011;11222;50.872;4.312;2023-08-12T03:49:35;14.63;;;12.43;;
22111;SDS011;11222;50.872;4.312;2023-08-12T03:52:01;17.30;;;12.68;;
22111;SDS011;11222;50.872;4.312;2023-08-12T03:54:28;15.65;;;11.55;;
22111;SDS011;11222;50.872;4.312;2023-08-12T03:56:53;14.13;;;10.60;;
22111;SDS011;11222;50.872;4.312;2023-08-12T03:59:19;11.27;;;9.50;;
22111;SDS011;11222;50.872;4.312;2023-08-12T04:01:45;10.20;;;8.45;;
22111;SDS011;11222;50.872;4.312;2023-08-12T04:04:10;9.20;;;7.47;;
22111;SDS011;11222;50.872;4.312;2023-08-12T04:06:36;8.98;;;6.90;;
22111;SDS011;11222;50.872;4.312;2023-08-12T04:09:02;9.68;;;6.78;;
22111;SDS011;11222;50.872;4.312;2023-08-12T04:11:28;8.40;;;7.53;;
22111;SDS011;11222;50.872;4.312;2023-08-12T04:13:53;9.43;;;7.72;;
22111;SDS011;11222;50.872;4.312;2023-08-12T04:16:19;7.75;;;7.00;;
22111;SDS011;11222;50.872;4.312;2023-08-12T04:18:45;8.93;;;7.30;;
22111;SDS011;11222;50.872;4.312;2023-08-12T04:21:10;8.25;;;7.45;;
22111;SDS011;11222;50.872;4.312;2023-08-12T04:23:36;8.95;;;7.53;;
22111;SDS011;11222;50.872;4.312;2023-08-12T04:26:01;8.35;;;7.55;;
22111;SDS011;11222;50.872;4.312;2023-08-12T04:28:27;9.95;;;7.88;;
22111;SDS011;11222;50.872;4.312;2023-08-12T04:30:53;8.10;;;7.30;;
22111;SDS011;11222;50.872;4.312;2023-08-12T04:33:18;9.63;;;7.90;;
22111;SDS011;11222;50.872;4.312;2023-08-12T04:35:47;8.95;;;7.55;;
22111;SDS011;11222;50.872;4.312;2023-08-12T04:38:12;7.57;;;6.88;;
22111;SDS011;11222;50.872;4.312;2023-08-12T04:40:39;8.55;;;7.68;;
22111;SDS011;11222;50.872;4.312;2023-08-12T04:43:05;8.65;;;7.70;;
22111;SDS011;11222;50.872;4.312;2023-08-12T04:45:31;8.73;;;7.60;;
22111;SDS011;11222;50.872;4.312;2023-08-12T04:47:57;8.02;;;6.97;;
22111;SDS011;11222;50.872;4.312;2023-08-12T04:50:23;8.63;;;7.50;;
22111;SDS011;11222;50.872;4.312;2023-08-12T04:52:48;7.70;;;6.90;;
22111;SDS011;11222;50.872;4.312;2023-08-12T04:55:14;7.97;;;7.03;;
22111;SDS011;11222;50.872;4.312;2023-08-12T04:57:40;8.00;;;6.40;;
22111;SDS011;11222;50.872;4.312;2023-08-12T05:00:05;8.55;;;7.10;;
22111;SDS011;11222;50.872;4.312;2023-08-12T05:02:34;8.85;;;7.75;;
22111;SDS011;11222;50.872;4.312;2023-08-12T05:05:00;9.45;;;8.02;;
22111;SDS011;11222;50.872;4.312;2023-08-12T05:07:26;11.32;;;8.57;;
22111;SDS011;11222;50.872;4.312;2023-08-12T05:09:52;11.43;;;8.77;;
22111;SDS011;11222;50.872;4.312;2023-08-12T05:12:18;10.50;;;9.40;;
22111;SDS011;11222;50.872;4.312;2023-08-12T05:14:44;11.02;;;9.20;;
22111;SDS011;11222;50.872;4.312;2023-08-12T05:17:11;13.48;;;10.38;;
22111;SDS011;11222;50.872;4.312;2023-08-12T05:19:36;10.85;;;9.65;;
22111;SDS011;11222;50.872;4.312;2023-08-12T05:22:02;11.10;;;9.80;;
22111;SDS011;11222;50.872;4.312;2023-08-12T05:24:28;11.45;;;9.73;;
22111;SDS011;11222;50.872;4.312;2023-08-12T05:26:53;11.60;;;9.98;;
22111;SDS011;11222;50.872;4.312;2023-08-12T05:29:19;12.20;;;10.63;;
22111;SDS011;11222;50.872;4.312;2023-08-12T05:31:45;12.38;;;10.75;;
22111;SDS011;11222;50.872;4.312;2023-08-12T05:34:10;12.05;;;10.82;;
22111;SDS011;11222;50.872;4.312;2023-08-12T05:36:36;11.48;;;10.27;;
22111;SDS011;11222;50.872;4.312;2023-08-12T05:39:02;12.48;;;11.02;;
22111;SDS011;11222;50.872;4.312;2023-08-12T05:41:28;13.45;;;11.45;;
22111;SDS011;11222;50.872;4.312;2023-08-12T05:43:54;14.63;;;11.40;;
22111;SDS011;11222;50.872;4.312;2023-08-12T05:46:19;15.05;;;11.32;;
22111;SDS011;11222;50.872;4.312;2023-08-12T05:48:45;14.48;;;10.43;;
22111;SDS011;11222;50.872;4.312;2023-08-12T05:51:11;13.07;;;10.52;;
22111;SDS011;11222;50.872;4.312;2023-08-12T05:53:37;12.68;;;10.00;;
22111;SDS011;11222;50.872;4.312;2023-08-12T05:56:03;13.38;;;9.98;;
22111;SDS011;11222;50.872;4.312;2023-08-12T05:58:28;11.23;;;9.05;;
22111;SDS011;11222;50.872;4.312;2023-08-12T06:00:54;9.82;;;8.43;;
22111;SDS011;11222;50.872;4.312;2023-08-12T06:03:20;9.73;;;8.70;;
22111;SDS011;11222;50.872;4.312;2023-08-12T06:05:46;8.95;;;7.78;;
22111;SDS011;11222;50.872;4.312;2023-08-12T06:08:12;9.45;;;8.10;;
22111;SDS011;11222;50.872;4.312;2023-08-12T06:10:38;8.68;;;7.00;;
22111;SDS011;11222;50.872;4.312;2023-08-12T06:13:04;9.77;;;7.15;;
22111;SDS011;11222;50.872;4.312;2023-08-12T06:15:30;8.98;;;7.55;;
22111;SDS011;11222;50.872;4.312;2023-08-12T06:17:56;8.07;;;7.28;;
22111;SDS011;11222;50.872;4.312;2023-08-12T06:20:22;10.63;;;8.25;;
22111;SDS011;11222;50.872;4.312;2023-08-12T06:22:49;7.55;;;6.65;;
22111;SDS011;11222;50.872;4.312;2023-08-12T06:25:15;10.18;;;7.07;;
22111;SDS011;11222;50.872;4.312;2023-08-12T06:27:41;10.48;;;7.32;;
22111;SDS011;11222;50.872;4.312;2023-08-12T06:30:07;9.65;;;6.55;;
22111;SDS011;11222;50.872;4.312;2023-08-12T06:32:33;6.82;;;6.13;;
22111;SDS011;11222;50.872;4.312;2023-08-12T06:35:00;8.80;;;6.22;;
22111;SDS011;11222;50.872;4.312;2023-08-12T06:37:25;7.50;;;6.05;;
22111;SDS011;11222;50.872;4.312;2023-08-12T06:39:51;8.82;;;5.88;;
22111;SDS011;11222;50.872;4.312;2023-08-12T06:42:16;7.45;;;5.95;;
22111;SDS011;11222;50.872;4.312;2023-08-12T06:44:42;6.65;;;5.40;;
22111;SDS011;11222;50.872;4.312;2023-08-12T06:47:08;6.95;;;5.65;;
22111;SDS011;11222;50.872;4.312;2023-08-12T06:49:33;8.10;;;5.72;;
22111;SDS011;11222;50.872;4.312;2023-08-12T06:51:59;7.70;;;4.80;;
22111;SDS011;11222;50.872;4.312;2023-08-12T06:54:25;6.80;;;5.32;;
22111;SDS011;11222;50.872;4.312;2023-08-12T06:56:50;8.05;;;5.15;;
22111;SDS011;11222;50.872;4.312;2023-08-12T06:59:16;6.75;;;5.68;;
22111;SDS011;11222;50.872;4.312;2023-08-12T07:01:42;11.82;;;9.82;;
22111;SDS011;11222;50.872;4.312;2023-08-12T07:04:08;14.20;;;12.52;;
22111;SDS011;11222;50.872;4.312;2023-08-12T07:06:34;18.75;;;16.20;;
22111;SDS011;11222;50.872;4.312;2023-08-12T07:08:59;21.77;;;17.52;;
22111;SDS011;11222;50.872;4.312;2023-08-12T07:11:25;18.70;;;16.20;;
22111;SDS011;11222;50.872;4.312;2023-08-12T07:13:51;20.33;;;16.25;;
22111;SDS011;11222;50.872;4.312;2023-08-12T07:16:16;17.75;;;14.55;;
22111;SDS011;11222;50.872;4.312;2023-08-12T07:18:42;15.68;;;12.63;;
22111;SDS011;11222;50.872;4.312;2023-08-12T07:21:08;14.60;;;11.95;;
22111;SDS011;11222;50.872;4.312;2023-08-12T07:23:34;18.17;;;12.23;;
22111;SDS011;11222;50.872;4.312;2023-08-12T07:25:59;14.43;;;12.23;;
22111;SDS011;11222;50.872;4.312;2023-08-12T07:28:25;14.30;;;12.35;;
22111;SDS011;11222;50.872;4.312;2023-08-12T07:30:51;17.40;;;14.38;;
22111;SDS011;11222;50.872;4.312;2023-08-12T07:33:17;15.70;;;13.27;;
22111;SDS011;11222;50.872;4.312;2023-08-12T07:35:43;14.95;;;13.40;;
22111;SDS011;11222;50.872;4.312;2023-08-12T07:38:08;15.88;;;13.68;;
22111;SDS011;11222;50.872;4.312;2023-08-12T07:40:34;18.45;;;15.43;;
22111;SDS011;11222;50.872;4.312;2023-08-12T07:43:00;17.23;;;15.43;;
22111;SDS011;11222;50.872;4.312;2023-08-12T07:45:25;20.00;;;16.15;;
22111;SDS011;11222;50.872;4.312;2023-08-12T07:47:51;18.88;;;16.15;;
22111;SDS011;11222;50.872;4.312;2023-08-12T07:50:17;20.27;;;16.85;;
22111;SDS011;11222;50.872;4.312;2023-08-12T07:52:43;18.25;;;14.68;;
22111;SDS011;11222;50.872;4.312;2023-08-12T07:55:09;16.30;;;14.43;;
22111;SDS011;11222;50.872;4.312;2023-08-12T07:57:34;14.30;;;12.90;;
22111;SDS011;11222;50.872;4.312;2023-08-12T08:00:00;13.50;;;12.07;;
22111;SDS011;11222;50.872;4.312;2023-08-12T08:02:26;14.30;;;11.35;;
22111;SDS011;11222;50.872;4.312;2023-08-12T08:04:51;11.48;;;10.27;;
22111;SDS011;11222;50.872;4.312;2023-08-12T08:07:17;11.63;;;10.48;;
22111;SDS011;11222;50.872;4.312;2023-08-12T08:09:43;11.80;;;10.57;;
22111;SDS011;11222;50.872;4.312;2023-08-12T08:12:09;10.75;;;9.75;;
22111;SDS011;11222;50.872;4.312;2023-08-12T08:14:35;10.23;;;8.85;;
22111;SDS011;11222;50.872;4.312;2023-08-12T08:17:01;10.10;;;9.10;;
22111;SDS011;11222;50.872;4.312;2023-08-12T08:19:28;10.38;;;9.45;;
22111;SDS011;11222;50.872;4.312;2023-08-12T08:21:54;11.02;;;9.93;;
22111;SDS011;11222;50.872;4.312;2023-08-12T08:24:19;11.45;;;10.27;;
22111;SDS011;11222;50.872;4.312;2023-08-12T08:26:45;10.88;;;9.57;;
22111;SDS011;11222;50.872;4.312;2023-08-12T08:29:12;11.73;;;10.00;;
22111;SDS011;11222;50.872;4.312;2023-08-12T08:31:38;12.10;;;10.35;;
22111;SDS011;11222;50.872;4.312;2023-08-12T08:34:04;10.32;;;8.63;;
22111;SDS011;11222;50.872;4.312;2023-08-12T08:36:29;9.05;;;8.07;;
22111;SDS011;11222;50.872;4.312;2023-08-12T08:38:55;10.18;;;8.27;;
22111;SDS011;11222;50.872;4.312;2023-08-12T08:41:21;9.52;;;8.52;;
22111;SDS011;11222;50.872;4.312;2023-08-12T08:43:50;8.77;;;7.97;;
22111;SDS011;11222;50.872;4.312;2023-08-12T08:46:20;8.32;;;7.50;;
22111;SDS011;11222;50.872;4.312;2023-08-12T08:48:46;7.82;;;7.05;;
22111;SDS011;11222;50.872;4.312;2023-08-12T08:51:13;8.63;;;7.00;;
22111;SDS011;11222;50.872;4.312;2023-08-12T08:53:40;9.18;;;7.70;;
22111;SDS011;11222;50.872;4.312;2023-08-12T08:56:06;7.63;;;6.78;;
22111;SDS011;11222;50.872;4.312;2023-08-12T08:58:33;8.13;;;7.03;;
22111;SDS011;11222;50.872;4.312;2023-08-12T09:00:59;9.43;;;6.20;;
22111;SDS011;11222;50.872;4.312;2023-08-12T09:03:25;7.72;;;5.97;;
22111;SDS011;11222;50.872;4.312;2023-08-12T09:05:52;7.32;;;5.38;;
22111;SDS011;11222;50.872;4.312;2023-08-12T09:08:20;6.68;;;5.07;;
22111;SDS011;11222;50.872;4.312;2023-08-12T09:10:47;5.97;;;5.20;;
22111;SDS011;11222;50.872;4.312;2023-08-12T09:13:13;6.38;;;5.30;;
22111;SDS011;11222;50.872;4.312;2023-08-12T09:15:40;6.40;;;4.97;;
22111;SDS011;11222;50.872;4.312;2023-08-12T09:18:06;7.88;;;5.75;;
22111;SDS011;11222;50.872;4.312;2023-08-12T09:20:34;6.57;;;4.78;;
22111;SDS011;11222;50.872;4.312;2023-08-12T09:23:01;5.00;;;4.40;;
22111;SDS011;11222;50.872;4.312;2023-08-12T09:25:27;6.38;;;4.07;;
22111;SDS011;11222;50.872;4.312;2023-08-12T09:28:00;5.63;;;3.67;;
22111;SDS011;11222;50.872;4.312;2023-08-12T09:30:29;6.28;;;4.30;;
22111;SDS011;11222;50.872;4.312;2023-08-12T09:33:00;8.57;;;3.70;;
22111;SDS011;11222;50.872;4.312;2023-08-12T09:35:38;6.05;;;3.72;;
22111;SDS011;11222;50.872;4.312;2023-08-12T09:38:05;6.40;;;3.40;;
22111;SDS011;11222;50.872;4.312;2023-08-12T09:40:38;5.97;;;3.40;;
22111;SDS011;11222;50.872;4.312;2023-08-12T09:43:04;6.15;;;3.17;;
22111;SDS011;11222;50.872;4.312;2023-08-12T09:45:30;6.15;;;3.08;;
22111;SDS011;11222;50.872;4.312;2023-08-12T09:47:56;8.50;;;3.00;;
22111;SDS011;11222;50.872;4.312;2023-08-12T09:50:22;9.65;;;3.00;;
22111;SDS011;11222;50.872;4.312;2023-08-12T09:52:49;6.57;;;3.05;;
22111;SDS011;11222;50.872;4.312;2023-08-12T09:55:17;6.82;;;2.90;;
22111;SDS011;11222;50.872;4.312;2023-08-12T09:57:43;6.22;;;2.92;;
22111;SDS011;11222;50.872;4.312;2023-08-12T10:00:12;6.95;;;3.38;;
22111;SDS011;11222;50.872;4.312;2023-08-12T10:02:43;7.13;;;3.20;;
22111;SDS011;11222;50.872;4.312;2023-08-12T10:05:11;6.65;;;2.97;;
22111;SDS011;11222;50.872;4.312;2023-08-12T10:07:40;6.32;;;2.90;;
22111;SDS011;11222;50.872;4.312;2023-08-12T10:10:08;5.38;;;3.08;;
22111;SDS011;11222;50.872;4.312;2023-08-12T10:12:34;5.07;;;2.70;;
22111;SDS011;11222;50.872;4.312;2023-08-12T10:15:03;6.78;;;3.20;;
22111;SDS011;11222;50.872;4.312;2023-08-12T10:17:30;5.00;;;3.17;;
22111;SDS011;11222;50.872;4.312;2023-08-12T10:19:57;5.30;;;3.13;;
22111;SDS011;11222;50.872;4.312;2023-08-12T10:22:24;11.57;;;3.35;;
22111;SDS011;11222;50.872;4.312;2023-08-12T10:24:51;5.85;;;3.55;;
22111;SDS011;11222;50.872;4.312;2023-08-12T10:27:17;9.00;;;3.35;;
22111;SDS011;11222;50.872;4.312;2023-08-12T10:29:43;6.03;;;3.47;;
22111;SDS011;11222;50.872;4.312;2023-08-12T10:32:09;5.85;;;3.13;;
22111;SDS011;11222;50.872;4.312;2023-08-12T10:34:35;7.78;;;3.65;;
22111;SDS011;11222;50.872;4.312;2023-08-12T10:37:02;6.45;;;3.60;;
22111;SDS011;11222;50.872;4.312;2023-08-12T10:39:28;4.60;;;3.40;;
22111;SDS011;11222;50.872;4.312;2023-08-12T10:41:56;5.78;;;3.40;;
22111;SDS011;11222;50.872;4.312;2023-08-12T10:44:26;4.63;;;3.50;;
22111;SDS011;11222;50.872;4.312;2023-08-12T10:46:52;5.32;;;3.40;;
22111;SDS011;11222;50.872;4.312;2023-08-12T10:49:19;8.07;;;4.00;;
22111;SDS011;11222;50.872;4.312;2023-08-12T10:51:47;5.50;;;3.67;;
22111;SDS011;11222;50.872;4.312;2023-08-12T10:54:17;5.65;;;3.58;;
22111;SDS011;11222;50.872;4.312;2023-08-12T11:07:28;7.47;;;3.03;;
22111;SDS011;11222;50.872;4.312;2023-08-12T11:10:18;4.35;;;3.10;;
22111;SDS011;11222;50.872;4.312;2023-08-12T11:15:18;5.85;;;3.22;;
22111;SDS011;11222;50.872;4.312;2023-08-12T11:17:58;4.47;;;3.05;;
22111;SDS011;11222;50.872;4.312;2023-08-12T11:20:24;6.35;;;3.33;;
22111;SDS011;11222;50.872;4.312;2023-08-12T11:22:52;7.55;;;3.20;;
22111;SDS011;11222;50.872;4.312;2023-08-12T11:25:18;8.02;;;3.40;;
22111;SDS011;11222;50.872;4.312;2023-08-12T11:27:45;4.28;;;2.67;;
22111;SDS011;11222;50.872;4.312;2023-08-12T11:30:13;6.68;;;3.10;;
22111;SDS011;11222;50.872;4.312;2023-08-12T11:32:41;4.57;;;2.70;;
22111;SDS011;11222;50.872;4.312;2023-08-12T11:35:08;6.30;;;2.95;;
22111;SDS011;11222;50.872;4.312;2023-08-12T11:37:35;6.03;;;2.80;;
22111;SDS011;11222;50.872;4.312;2023-08-12T11:40:05;5.05;;;2.75;;
22111;SDS011;11222;50.872;4.312;2023-08-12T11:42:34;7.75;;;3.13;;
22111;SDS011;11222;50.872;4.312;2023-08-12T11:45:01;4.30;;;2.90;;
22111;SDS011;11222;50.872;4.312;2023-08-12T11:47:28;6.15;;;2.72;;
22111;SDS011;11222;50.872;4.312;2023-08-12T11:49:54;7.18;;;3.10;;
22111;SDS011;11222;50.872;4.312;2023-08-12T11:52:19;4.50;;;2.75;;
22111;SDS011;11222;50.872;4.312;2023-08-12T11:54:45;7.32;;;2.65;;
22111;SDS011;11222;50.872;4.312;2023-08-12T11:57:13;5.55;;;3.03;;
22111;SDS011;11222;50.872;4.312;2023-08-12T11:59:38;7.78;;;2.90;;
22111;SDS011;11222;50.872;4.312;2023-08-12T12:02:04;5.45;;;3.03;;
22111;SDS011;11222;50.872;4.312;2023-08-12T12:04:30;6.88;;;3.05;;
22111;SDS011;11222;50.872;4.312;2023-08-12T12:06:56;11.60;;;3.60;;
22111;SDS011;11222;50.872;4.312;2023-08-12T12:09:22;5.63;;;3.20;;
22111;SDS011;11222;50.872;4.312;2023-08-12T12:11:52;5.35;;;2.90;;
22111;SDS011;11222;50.872;4.312;2023-08-12T12:14:18;4.05;;;2.90;;
22111;SDS011;11222;50.872;4.312;2023-08-12T12:16:46;3.97;;;2.78;;
22111;SDS011;11222;50.872;4.312;2023-08-12T12:19:19;4.95;;;3.05;;
22111;SDS011;11222;50.872;4.312;2023-08-12T12:21:47;5.43;;;2.90;;
22111;SDS011;11222;50.872;4.312;2023-08-12T12:24:14;4.80;;;2.85;;
22111;SDS011;11222;50.872;4.312;2023-08-12T12:26:41;6.47;;;3.10;;
22111;SDS011;11222;50.872;4.312;2023-08-12T12:29:07;4.78;;;2.80;;
22111;SDS011;11222;50.872;4.312;2023-08-12T12:31:33;4.45;;;2.67;;
22111;SDS011;11222;50.872;4.312;2023-08-12T12:34:04;5.47;;;3.05;;
22111;SDS011;11222;50.872;4.312;2023-08-12T12:36:30;5.78;;;2.97;;
22111;SDS011;11222;50.872;4.312;2023-08-12T12:39:00;6.93;;;3.08;;
22111;SDS011;11222;50.872;4.312;2023-08-12T12:41:27;7.25;;;3.05;;
22111;SDS011;11222;50.872;4.312;2023-08-12T12:43:52;6.90;;;2.63;;
22111;SDS011;11222;50.872;4.312;2023-08-12T12:46:18;6.47;;;2.90;;
22111;SDS011;11222;50.872;4.312;2023-08-12T12:48:44;6.25;;;2.97;;
22111;SDS011;11222;50.872;4.312;2023-08-12T12:51:11;4.80;;;2.80;;
22111;SDS011;11222;50.872;4.312;2023-08-12T12:53:37;6.45;;;3.30;;
22111;SDS011;11222;50.872;4.312;2023-08-12T12:56:03;3.47;;;2.70;;
22111;SDS011;11222;50.872;4.312;2023-08-12T12:58:30;9.48;;;3.05;;
22111;SDS011;11222;50.872;4.312;2023-08-12T13:00:58;7.78;;;3.08;;
22111;SDS011;11222;50.872;4.312;2023-08-12T13:03:24;7.40;;;3.60;;
22111;SDS011;11222;50.872;4.312;2023-08-12T13:05:50;5.07;;;3.20;;
22111;SDS011;11222;50.872;4.312;2023-08-12T13:08:15;8.88;;;4.63;;
22111;SDS011;11222;50.872;4.312;2023-08-12T13:10:41;4.93;;;3.30;;
22111;SDS011;11222;50.872;4.312;2023-08-12T13:13:07;6.30;;;3.78;;
22111;SDS011;11222;50.872;4.312;2023-08-12T13:15:33;6.10;;;3.88;;
22111;SDS011;11222;50.872;4.312;2023-08-12T13:17:59;4.82;;;3.78;;
22111;SDS011;11222;50.872;4.312;2023-08-12T13:20:25;5.65;;;3.85;;
22111;SDS011;11222;50.872;4.312;2023-08-12T13:22:51;5.30;;;3.92;;
22111;SDS011;11222;50.872;4.312;2023-08-12T13:25:16;5.55;;;3.90;;
22111;SDS011;11222;50.872;4.312;2023-08-12T13:27:42;5.38;;;4.32;;
22111;SDS011;11222;50.872;4.312;2023-08-12T13:30:09;5.30;;;3.80;;
22111;SDS011;11222;50.872;4.312;2023-08-12T13:32:37;6.35;;;3.90;;
22111;SDS011;11222;50.872;4.312;2023-08-12T13:35:03;10.43;;;3.92;;
22111;SDS011;11222;50.872;4.312;2023-08-12T13:37:31;6.72;;;3.50;;
22111;SDS011;11222;50.872;4.312;2023-08-12T13:40:00;7.30;;;4.38;;
22111;SDS011;11222;50.872;4.312;2023-08-12T13:42:26;7.47;;;3.95;;
22111;SDS011;11222;50.872;4.312;2023-08-12T13:44:51;5.15;;;3.78;;
22111;SDS011;11222;50.872;4.312;2023-08-12T13:47:18;6.00;;;4.07;;
22111;SDS011;11222;50.872;4.312;2023-08-12T13:49:43;6.18;;;3.63;;
22111;SDS011;11222;50.872;4.312;2023-08-12T13:52:09;8.30;;;3.60;;
22111;SDS011;11222;50.872;4.312;2023-08-12T13:54:34;5.15;;;3.40;;
22111;SDS011;11222;50.872;4.312;2023-08-12T13:57:00;5.63;;;3.10;;
22111;SDS011;11222;50.872;4.312;2023-08-12T13:59:26;8.18;;;3.60;;
22111;SDS011;11222;50.872;4.312;2023-08-12T14:01:51;4.28;;;3.00;;
22111;SDS011;11222;50.872;4.312;2023-08-12T14:04:17;6.50;;;3.50;;
22111;SDS011;11222;50.872;4.312;2023-08-12T14:06:42;5.93;;;2.90;;
22111;SDS011;11222;50.872;4.312;2023-08-12T14:09:08;7.13;;;3.33;;
22111;SDS011;11222;50.872;4.312;2023-08-12T14:11:36;7.78;;;3.50;;
22111;SDS011;11222;50.872;4.312;2023-08-12T14:14:01;5.63;;;3.45;;
22111;SDS011;11222;50.872;4.312;2023-08-12T14:16:28;8.68;;;3.95;;
22111;SDS011;11222;50.872;4.312;2023-08-12T14:18:54;6.28;;;3.33;;
22111;SDS011;11222;50.872;4.312;2023-08-12T14:21:19;8.85;;;3.88;;
22111;SDS011;11222;50.872;4.312;2023-08-12T14:23:45;5.10;;;3.50;;
22111;SDS011;11222;50.872;4.312;2023-08-12T14:26:11;5.57;;;3.28;;
22111;SDS011;11222;50.872;4.312;2023-08-12T14:28:36;4.63;;;3.00;;
22111;SDS011;11222;50.872;4.312;2023-08-12T14:31:02;5.70;;;3.80;;
22111;SDS011;11222;50.872;4.312;2023-08-12T14:33:28;7.07;;;3.45;;
22111;SDS011;11222;50.872;4.312;2023-08-12T14:35:57;5.97;;;3.30;;
22111;SDS011;11222;50.872;4.312;2023-08-12T14:38:23;7.10;;;3.60;;
22111;SDS011;11222;50.872;4.312;2023-08-12T14:40:48;7.85;;;4.75;;
22111;SDS011;11222;50.872;4.312;2023-08-12T14:43:14;5.85;;;3.58;;
22111;SDS011;11222;50.872;4.312;2023-08-12T14:45:40;6.20;;;3.97;;
22111;SDS011;11222;50.872;4.312;2023-08-12T14:48:06;4.43;;;3.60;;